sensor_id;sensor_type;location;lat;lon;timestamp;P1;durP1;ratioP1;P2;durP2;ratioP2
47349;SDS011;33088;51.982;5.872;2023-01-31T00:00:53;26.15;;;4.40;;
47349;SDS011;33088;51.982;5.872;2023-01-31T00:03:18;20.38;;;3.15;;
47349;SDS011;33088;51.982;5.872;2023-01-31T00:05:44;20.88;;;3.20;;
47349;SDS011;33088;51.982;5.872;2023-01-31T00:08:09;17.45;;;3.65;;
47349;SDS011;33088;51.982;5.872;2023-01-31T00:10:36;21.55;;;3.65;;
47349;SDS011;33088;51.982;5.872;2023-01-31T00:13:02;24.10;;;3.80;;
47349;SDS011;33088;51.982;5.872;2023-01-31T00:15:28;23.27;;;3.53;;
47349;SDS011;33088;51.982;5.872;2023-01-31T00:17:53;23.05;;;3.35;;
47349;SDS011;33088;51.982;5.872;2023-01-31T00:20:19;25.52;;;5.10;;
47349;SDS011;33088;51.982;5.872;2023-01-31T00:22:45;26.08;;;4.03;;
47349;SDS011;33088;51.982;5.872;2023-01-31T00:25:10;23.33;;;3.85;;
47349;SDS011;33088;51.982;5.872;2023-01-31T00:27:36;25.75;;;3.63;;
47349;SDS011;33088;51.982;5.872;2023-01-31T00:30:02;15.23;;;4.47;;
47349;SDS011;33088;51.982;5.872;2023-01-31T00:32:28;26.95;;;4.68;;
47349;SDS011;33088;51.982;5.872;2023-01-31T00:34:54;24.20;;;3.60;;
47349;SDS011;33088;51.982;5.872;2023-01-31T00:37:20;21.13;;;4.38;;
47349;SDS011;33088;51.982;5.872;2023-01-31T00:39:46;32.03;;;4.90;;
47349;SDS011;33088;51.982;5.872;2023-01-31T00:42:15;21.73;;;3.65;;
47349;SDS011;33088;51.982;5.872;2023-01-31T00:44:41;30.55;;;3.95;;
47349;SDS011;33088;51.982;5.872;2023-01-31T00:47:06;28.50;;;4.25;;
47349;SDS011;33088;51.982;5.872;2023-01-31T00:49:32;18.73;;;4.43;;
47349;SDS011;33088;51.982;5.872;2023-01-31T00:51:58;26.67;;;5.20;;
47349;SDS011;33088;51.982;5.872;2023-01-31T00:54:23;20.42;;;4.80;;
47349;SDS011;33088;51.982;5.872;2023-01-31T00:56:49;38.50;;;5.43;;
47349;SDS011;33088;51.982;5.872;2023-01-31T00:59:15;26.52;;;6.07;;
47349;SDS011;33088;51.982;5.872;2023-01-31T01:01:41;30.65;;;6.00;;
47349;SDS011;33088;51.982;5.872;2023-01-31T01:04:06;23.63;;;5.30;;
47349;SDS011;33088;51.982;5.872;2023-01-31T01:06:32;19.92;;;5.28;;
47349;SDS011;33088;51.982;5.872;2023-01-31T01:08:59;22.02;;;4.60;;
47349;SDS011;33088;51.982;5.872;2023-01-31T01:11:26;26.92;;;5.00;;
47349;SDS011;33088;51.982;5.872;2023-01-31T01:13:54;20.50;;;4.70;;
47349;SDS011;33088;51.982;5.872;2023-01-31T01:16:22;14.55;;;3.63;;
47349;SDS011;33088;51.982;5.872;2023-01-31T01:18:49;22.15;;;4.07;;
47349;SDS011;33088;51.982;5.872;2023-01-31T01:21:17;29.13;;;4.72;;
47349;SDS011;33088;51.982;5.872;2023-01-31T01:23:44;22.25;;;3.80;;
47349;SDS011;33088;51.982;5.872;2023-01-31T01:26:13;28.35;;;6.28;;
47349;SDS011;33088;51.982;5.872;2023-01-31T01:28:40;30.77;;;4.97;;
47349;SDS011;33088;51.982;5.872;2023-01-31T01:31:06;14.38;;;4.13;;
47349;SDS011;33088;51.982;5.872;2023-01-31T01:33:34;22.38;;;4.68;;
47349;SDS011;33088;51.982;5.872;2023-01-31T01:36:04;23.55;;;4.60;;
47349;SDS011;33088;51.982;5.872;2023-01-31T01:38:35;36.60;;;5.10;;
47349;SDS011;33088;51.982;5.872;2023-01-31T01:41:02;22.35;;;5.00;;
47349;SDS011;33088;51.982;5.872;2023-01-31T01:46:28;21.00;;;5.43;;
47349;SDS011;33088;51.982;5.872;2023-01-31T01:51:39;19.73;;;5.78;;
47349;SDS011;33088;51.982;5.872;2023-01-31T01:54:07;18.55;;;4.55;;
47349;SDS011;33088;51.982;5.872;2023-01-31T01:56:38;14.63;;;4.75;;
47349;SDS011;33088;51.982;5.872;2023-01-31T01:59:16;22.80;;;4.60;;
47349;SDS011;33088;51.982;5.872;2023-01-31T02:01:49;23.85;;;4.65;;
47349;SDS011;33088;51.982;5.872;2023-01-31T02:04:16;28.55;;;4.30;;
47349;SDS011;33088;51.982;5.872;2023-01-31T02:06:46;25.27;;;4.03;;
47349;SDS011;33088;51.982;5.872;2023-01-31T02:09:20;27.88;;;4.07;;
47349;SDS011;33088;51.982;5.872;2023-01-31T02:11:53;18.27;;;4.05;;
47349;SDS011;33088;51.982;5.872;2023-01-31T02:14:19;23.63;;;4.35;;
47349;SDS011;33088;51.982;5.872;2023-01-31T02:16:45;24.65;;;4.43;;
47349;SDS011;33088;51.982;5.872;2023-01-31T02:19:25;29.48;;;4.20;;
47349;SDS011;33088;51.982;5.872;2023-01-31T02:22:13;28.85;;;4.20;;
47349;SDS011;33088;51.982;5.872;2023-01-31T02:28:07;23.00;;;4.60;;
47349;SDS011;33088;51.982;5.872;2023-01-31T02:33:41;15.90;;;3.10;;
47349;SDS011;33088;51.982;5.872;2023-01-31T02:36:20;26.98;;;4.10;;
47349;SDS011;33088;51.982;5.872;2023-01-31T02:38:54;24.73;;;5.55;;
47349;SDS011;33088;51.982;5.872;2023-01-31T02:41:36;24.67;;;5.53;;
47349;SDS011;33088;51.982;5.872;2023-01-31T02:44:28;17.98;;;4.22;;
47349;SDS011;33088;51.982;5.872;2023-01-31T02:50:20;18.65;;;3.65;;
47349;SDS011;33088;51.982;5.872;2023-01-31T02:55:42;23.85;;;4.50;;
47349;SDS011;33088;51.982;5.872;2023-01-31T02:58:39;31.98;;;4.45;;
47349;SDS011;33088;51.982;5.872;2023-01-31T03:01:10;22.17;;;4.20;;
47349;SDS011;33088;51.982;5.872;2023-01-31T03:03:39;20.85;;;4.40;;
47349;SDS011;33088;51.982;5.872;2023-01-31T03:06:09;27.30;;;4.00;;
47349;SDS011;33088;51.982;5.872;2023-01-31T03:11:48;19.50;;;3.85;;
47349;SDS011;33088;51.982;5.872;2023-01-31T03:17:58;28.85;;;5.30;;
47349;SDS011;33088;51.982;5.872;2023-01-31T03:20:34;25.10;;;6.00;;
47349;SDS011;33088;51.982;5.872;2023-01-31T03:23:10;23.05;;;3.60;;
47349;SDS011;33088;51.982;5.872;2023-01-31T03:25:48;32.03;;;6.22;;
47349;SDS011;33088;51.982;5.872;2023-01-31T03:28:17;28.40;;;5.20;;
47349;SDS011;33088;51.982;5.872;2023-01-31T03:30:55;19.60;;;4.50;;
47349;SDS011;33088;51.982;5.872;2023-01-31T03:33:29;18.23;;;4.45;;
47349;SDS011;33088;51.982;5.872;2023-01-31T03:38:40;20.60;;;5.10;;
47349;SDS011;33088;51.982;5.872;2023-01-31T03:41:26;29.45;;;4.85;;
47349;SDS011;33088;51.982;5.872;2023-01-31T03:44:13;31.30;;;5.55;;
47349;SDS011;33088;51.982;5.872;2023-01-31T03:46:58;33.42;;;5.70;;
47349;SDS011;33088;51.982;5.872;2023-01-31T03:49:28;22.10;;;6.13;;
47349;SDS011;33088;51.982;5.872;2023-01-31T03:51:57;27.08;;;6.65;;
47349;SDS011;33088;51.982;5.872;2023-01-31T03:54:29;21.20;;;5.28;;
47349;SDS011;33088;51.982;5.872;2023-01-31T03:57:42;28.77;;;6.82;;
47349;SDS011;33088;51.982;5.872;2023-01-31T03:59:53;34.13;;;6.47;;
47349;SDS011;33088;51.982;5.872;2023-01-31T04:02:24;25.58;;;6.65;;
47349;SDS011;33088;51.982;5.872;2023-01-31T04:05:03;44.78;;;7.20;;
47349;SDS011;33088;51.982;5.872;2023-01-31T04:07:38;26.67;;;6.90;;
47349;SDS011;33088;51.982;5.872;2023-01-31T04:10:06;31.45;;;6.80;;
47349;SDS011;33088;51.982;5.872;2023-01-31T04:12:36;32.30;;;7.90;;
47349;SDS011;33088;51.982;5.872;2023-01-31T04:15:03;27.70;;;7.45;;
47349;SDS011;33088;51.982;5.872;2023-01-31T04:17:30;33.10;;;7.03;;
47349;SDS011;33088;51.982;5.872;2023-01-31T04:19:55;35.40;;;9.82;;
47349;SDS011;33088;51.982;5.872;2023-01-31T04:22:21;28.40;;;8.02;;
47349;SDS011;33088;51.982;5.872;2023-01-31T04:24:47;34.78;;;9.52;;
47349;SDS011;33088;51.982;5.872;2023-01-31T04:27:12;30.52;;;9.35;;
47349;SDS011;33088;51.982;5.872;2023-01-31T04:29:38;36.30;;;8.95;;
47349;SDS011;33088;51.982;5.872;2023-01-31T04:32:04;36.72;;;9.80;;
47349;SDS011;33088;51.982;5.872;2023-01-31T04:34:29;34.60;;;8.43;;
47349;SDS011;33088;51.982;5.872;2023-01-31T04:36:55;35.55;;;10.20;;
47349;SDS011;33088;51.982;5.872;2023-01-31T04:39:20;36.92;;;9.38;;
47349;SDS011;33088;51.982;5.872;2023-01-31T04:41:46;39.75;;;9.88;;
47349;SDS011;33088;51.982;5.872;2023-01-31T04:44:12;37.08;;;10.48;;
47349;SDS011;33088;51.982;5.872;2023-01-31T04:46:38;47.78;;;11.38;;
47349;SDS011;33088;51.982;5.872;2023-01-31T04:49:04;30.67;;;9.60;;
47349;SDS011;33088;51.982;5.872;2023-01-31T04:51:29;35.40;;;10.77;;
47349;SDS011;33088;51.982;5.872;2023-01-31T04:53:55;30.42;;;10.30;;
47349;SDS011;33088;51.982;5.872;2023-01-31T04:56:21;40.78;;;10.40;;
47349;SDS011;33088;51.982;5.872;2023-01-31T04:58:47;37.35;;;11.38;;
47349;SDS011;33088;51.982;5.872;2023-01-31T05:01:12;43.75;;;12.00;;
47349;SDS011;33088;51.982;5.872;2023-01-31T05:03:38;33.58;;;11.10;;
47349;SDS011;33088;51.982;5.872;2023-01-31T05:06:04;39.17;;;11.60;;
47349;SDS011;33088;51.982;5.872;2023-01-31T05:08:30;36.15;;;11.40;;
47349;SDS011;33088;51.982;5.872;2023-01-31T05:10:59;33.17;;;9.88;;
47349;SDS011;33088;51.982;5.872;2023-01-31T05:13:26;40.17;;;11.50;;
47349;SDS011;33088;51.982;5.872;2023-01-31T05:15:54;45.40;;;11.93;;
47349;SDS011;33088;51.982;5.872;2023-01-31T05:18:22;37.25;;;11.35;;
47349;SDS011;33088;51.982;5.872;2023-01-31T05:20:48;38.25;;;11.20;;
47349;SDS011;33088;51.982;5.872;2023-01-31T05:23:15;34.78;;;10.48;;
47349;SDS011;33088;51.982;5.872;2023-01-31T05:25:41;41.60;;;12.30;;
47349;SDS011;33088;51.982;5.872;2023-01-31T05:28:07;32.35;;;11.27;;
47349;SDS011;33088;51.982;5.872;2023-01-31T05:30:33;41.83;;;12.15;;
47349;SDS011;33088;51.982;5.872;2023-01-31T05:33:00;32.88;;;11.38;;
47349;SDS011;33088;51.982;5.872;2023-01-31T05:35:25;43.22;;;11.82;;
47349;SDS011;33088;51.982;5.872;2023-01-31T05:37:54;32.63;;;11.80;;
47349;SDS011;33088;51.982;5.872;2023-01-31T05:40:20;40.15;;;13.52;;
47349;SDS011;33088;51.982;5.872;2023-01-31T05:42:57;28.70;;;10.90;;
47349;SDS011;33088;51.982;5.872;2023-01-31T05:45:26;34.03;;;12.50;;
47349;SDS011;33088;51.982;5.872;2023-01-31T05:47:53;33.10;;;12.60;;
47349;SDS011;33088;51.982;5.872;2023-01-31T05:50:20;37.63;;;12.30;;
47349;SDS011;33088;51.982;5.872;2023-01-31T05:52:54;28.23;;;12.10;;
47349;SDS011;33088;51.982;5.872;2023-01-31T05:55:21;50.35;;;12.23;;
47349;SDS011;33088;51.982;5.872;2023-01-31T05:57:47;32.92;;;13.07;;
47349;SDS011;33088;51.982;5.872;2023-01-31T06:00:13;37.97;;;14.10;;
47349;SDS011;33088;51.982;5.872;2023-01-31T06:02:40;47.53;;;13.60;;
47349;SDS011;33088;51.982;5.872;2023-01-31T06:05:06;46.70;;;12.25;;
47349;SDS011;33088;51.982;5.872;2023-01-31T06:07:32;41.67;;;12.27;;
47349;SDS011;33088;51.982;5.872;2023-01-31T06:09:58;39.28;;;11.27;;
47349;SDS011;33088;51.982;5.872;2023-01-31T06:12:24;42.78;;;13.32;;
47349;SDS011;33088;51.982;5.872;2023-01-31T06:14:50;45.58;;;14.40;;
47349;SDS011;33088;51.982;5.872;2023-01-31T06:17:15;31.38;;;10.90;;
47349;SDS011;33088;51.982;5.872;2023-01-31T06:19:41;35.35;;;11.13;;
47349;SDS011;33088;51.982;5.872;2023-01-31T06:22:07;33.35;;;11.43;;
47349;SDS011;33088;51.982;5.872;2023-01-31T06:24:35;37.63;;;10.48;;
47349;SDS011;33088;51.982;5.872;2023-01-31T06:27:00;42.05;;;12.80;;
47349;SDS011;33088;51.982;5.872;2023-01-31T06:29:26;38.92;;;11.93;;
47349;SDS011;33088;51.982;5.872;2023-01-31T06:31:52;34.50;;;12.90;;
47349;SDS011;33088;51.982;5.872;2023-01-31T06:34:18;43.33;;;12.18;;
47349;SDS011;33088;51.982;5.872;2023-01-31T06:36:44;50.28;;;13.60;;
47349;SDS011;33088;51.982;5.872;2023-01-31T06:39:11;41.75;;;12.40;;
47349;SDS011;33088;51.982;5.872;2023-01-31T06:41:38;38.25;;;12.13;;
47349;SDS011;33088;51.982;5.872;2023-01-31T06:44:04;35.92;;;11.23;;
47349;SDS011;33088;51.982;5.872;2023-01-31T06:46:30;45.13;;;11.80;;
47349;SDS011;33088;51.982;5.872;2023-01-31T06:48:56;34.17;;;13.77;;
47349;SDS011;33088;51.982;5.872;2023-01-31T06:51:21;45.00;;;12.60;;
47349;SDS011;33088;51.982;5.872;2023-01-31T06:53:47;35.92;;;11.98;;
47349;SDS011;33088;51.982;5.872;2023-01-31T06:56:12;35.70;;;11.18;;
47349;SDS011;33088;51.982;5.872;2023-01-31T06:58:38;36.20;;;11.45;;
47349;SDS011;33088;51.982;5.872;2023-01-31T07:01:05;38.97;;;11.48;;
47349;SDS011;33088;51.982;5.872;2023-01-31T07:03:32;54.67;;;15.65;;
47349;SDS011;33088;51.982;5.872;2023-01-31T07:05:58;35.88;;;11.35;;
47349;SDS011;33088;51.982;5.872;2023-01-31T07:08:24;35.20;;;12.05;;
47349;SDS011;33088;51.982;5.872;2023-01-31T07:10:49;30.27;;;10.95;;
47349;SDS011;33088;51.982;5.872;2023-01-31T07:13:15;40.72;;;11.40;;
47349;SDS011;33088;51.982;5.872;2023-01-31T07:15:41;42.60;;;11.18;;
47349;SDS011;33088;51.982;5.872;2023-01-31T07:18:07;40.45;;;13.50;;
47349;SDS011;33088;51.982;5.872;2023-01-31T07:20:32;31.40;;;12.77;;
47349;SDS011;33088;51.982;5.872;2023-01-31T07:22:58;31.42;;;10.63;;
47349;SDS011;33088;51.982;5.872;2023-01-31T07:25:24;32.35;;;10.40;;
47349;SDS011;33088;51.982;5.872;2023-01-31T07:27:51;45.60;;;12.32;;
47349;SDS011;33088;51.982;5.872;2023-01-31T07:30:17;35.00;;;11.88;;
47349;SDS011;33088;51.982;5.872;2023-01-31T07:32:43;37.90;;;12.55;;
47349;SDS011;33088;51.982;5.872;2023-01-31T07:35:09;43.38;;;12.13;;
47349;SDS011;33088;51.982;5.872;2023-01-31T07:37:34;41.60;;;11.35;;
47349;SDS011;33088;51.982;5.872;2023-01-31T07:40:00;34.35;;;10.70;;
47349;SDS011;33088;51.982;5.872;2023-01-31T07:42:27;33.42;;;11.05;;
47349;SDS011;33088;51.982;5.872;2023-01-31T07:44:52;34.03;;;11.27;;
47349;SDS011;33088;51.982;5.872;2023-01-31T07:47:19;40.08;;;12.23;;
47349;SDS011;33088;51.982;5.872;2023-01-31T07:49:44;31.38;;;11.98;;
47349;SDS011;33088;51.982;5.872;2023-01-31T07:52:10;33.05;;;11.32;;
47349;SDS011;33088;51.982;5.872;2023-01-31T07:54:36;30.98;;;10.05;;
47349;SDS011;33088;51.982;5.872;2023-01-31T07:57:01;39.63;;;12.57;;
47349;SDS011;33088;51.982;5.872;2023-01-31T07:59:27;38.08;;;11.15;;
47349;SDS011;33088;51.982;5.872;2023-01-31T08:01:53;33.85;;;11.10;;
47349;SDS011;33088;51.982;5.872;2023-01-31T08:04:37;36.05;;;11.88;;
47349;SDS011;33088;51.982;5.872;2023-01-31T08:07:03;39.33;;;9.90;;
47349;SDS011;33088;51.982;5.872;2023-01-31T08:09:30;30.15;;;9.77;;
47349;SDS011;33088;51.982;5.872;2023-01-31T08:11:56;28.17;;;9.35;;
47349;SDS011;33088;51.982;5.872;2023-01-31T08:14:22;29.88;;;10.40;;
47349;SDS011;33088;51.982;5.872;2023-01-31T08:16:55;28.65;;;8.93;;
47349;SDS011;33088;51.982;5.872;2023-01-31T08:19:21;26.10;;;10.40;;
47349;SDS011;33088;51.982;5.872;2023-01-31T08:21:48;34.72;;;9.55;;
47349;SDS011;33088;51.982;5.872;2023-01-31T08:24:14;43.05;;;12.23;;
47349;SDS011;33088;51.982;5.872;2023-01-31T08:26:41;30.50;;;8.85;;
47349;SDS011;33088;51.982;5.872;2023-01-31T08:29:07;28.80;;;9.95;;
47349;SDS011;33088;51.982;5.872;2023-01-31T08:31:33;21.27;;;8.98;;
47349;SDS011;33088;51.982;5.872;2023-01-31T08:33:58;25.33;;;8.23;;
47349;SDS011;33088;51.982;5.872;2023-01-31T08:36:25;30.02;;;9.35;;
47349;SDS011;33088;51.982;5.872;2023-01-31T08:38:54;32.67;;;9.68;;
47349;SDS011;33088;51.982;5.872;2023-01-31T08:41:21;27.50;;;9.20;;
47349;SDS011;33088;51.982;5.872;2023-01-31T08:43:48;30.83;;;8.38;;
47349;SDS011;33088;51.982;5.872;2023-01-31T08:46:14;26.35;;;8.13;;
47349;SDS011;33088;51.982;5.872;2023-01-31T08:48:40;34.03;;;8.98;;
47349;SDS011;33088;51.982;5.872;2023-01-31T08:51:07;34.22;;;9.07;;
47349;SDS011;33088;51.982;5.872;2023-01-31T08:53:36;24.50;;;8.57;;
47349;SDS011;33088;51.982;5.872;2023-01-31T08:56:04;29.75;;;8.73;;
47349;SDS011;33088;51.982;5.872;2023-01-31T08:58:30;27.67;;;8.55;;
47349;SDS011;33088;51.982;5.872;2023-01-31T09:01:01;23.48;;;7.20;;
47349;SDS011;33088;51.982;5.872;2023-01-31T09:03:28;31.77;;;8.25;;
47349;SDS011;33088;51.982;5.872;2023-01-31T09:05:53;18.48;;;6.88;;
47349;SDS011;33088;51.982;5.872;2023-01-31T09:08:22;29.25;;;9.40;;
47349;SDS011;33088;51.982;5.872;2023-01-31T09:10:54;28.08;;;7.68;;
47349;SDS011;33088;51.982;5.872;2023-01-31T09:15:46;29.58;;;8.50;;
47349;SDS011;33088;51.982;5.872;2023-01-31T09:18:21;26.55;;;8.45;;
47349;SDS011;33088;51.982;5.872;2023-01-31T09:20:46;19.63;;;6.82;;
47349;SDS011;33088;51.982;5.872;2023-01-31T09:23:12;19.15;;;7.70;;
47349;SDS011;33088;51.982;5.872;2023-01-31T09:25:38;22.35;;;8.40;;
47349;SDS011;33088;51.982;5.872;2023-01-31T09:28:03;25.75;;;7.68;;
47349;SDS011;33088;51.982;5.872;2023-01-31T09:30:29;25.55;;;8.52;;
47349;SDS011;33088;51.982;5.872;2023-01-31T09:32:55;23.73;;;7.97;;
47349;SDS011;33088;51.982;5.872;2023-01-31T09:35:20;32.13;;;7.88;;
47349;SDS011;33088;51.982;5.872;2023-01-31T09:37:46;24.25;;;7.65;;
47349;SDS011;33088;51.982;5.872;2023-01-31T09:40:15;31.90;;;8.55;;
47349;SDS011;33088;51.982;5.872;2023-01-31T09:42:47;24.52;;;6.97;;
47349;SDS011;33088;51.982;5.872;2023-01-31T09:45:17;37.80;;;9.20;;
47349;SDS011;33088;51.982;5.872;2023-01-31T09:47:55;17.98;;;7.28;;
47349;SDS011;33088;51.982;5.872;2023-01-31T09:53:00;32.65;;;8.13;;
47349;SDS011;33088;51.982;5.872;2023-01-31T10:00:56;35.00;;;8.50;;
47349;SDS011;33088;51.982;5.872;2023-01-31T10:03:51;31.85;;;7.70;;
47349;SDS011;33088;51.982;5.872;2023-01-31T10:06:35;25.05;;;7.55;;
47349;SDS011;33088;51.982;5.872;2023-01-31T10:11:56;35.42;;;7.78;;
47349;SDS011;33088;51.982;5.872;2023-01-31T10:15:02;31.10;;;8.80;;
47349;SDS011;33088;51.982;5.872;2023-01-31T10:17:42;27.77;;;7.45;;
47349;SDS011;33088;51.982;5.872;2023-01-31T10:20:18;27.67;;;6.82;;
47349;SDS011;33088;51.982;5.872;2023-01-31T10:25:51;21.83;;;6.43;;
47349;SDS011;33088;51.982;5.872;2023-01-31T10:28:29;16.42;;;5.47;;
47349;SDS011;33088;51.982;5.872;2023-01-31T10:31:00;21.10;;;5.05;;
47349;SDS011;33088;51.982;5.872;2023-01-31T10:36:32;27.30;;;5.70;;
47349;SDS011;33088;51.982;5.872;2023-01-31T10:44:31;14.88;;;6.40;;
47349;SDS011;33088;51.982;5.872;2023-01-31T10:47:12;25.42;;;6.68;;
47349;SDS011;33088;51.982;5.872;2023-01-31T10:49:40;19.70;;;6.30;;
47349;SDS011;33088;51.982;5.872;2023-01-31T10:52:22;23.17;;;6.97;;
47349;SDS011;33088;51.982;5.872;2023-01-31T10:57:50;24.25;;;7.80;;
47349;SDS011;33088;51.982;5.872;2023-01-31T11:00:22;29.52;;;7.07;;
47349;SDS011;33088;51.982;5.872;2023-01-31T11:02:52;25.08;;;7.38;;
47349;SDS011;33088;51.982;5.872;2023-01-31T11:05:19;21.67;;;7.00;;
47349;SDS011;33088;51.982;5.872;2023-01-31T11:07:47;28.50;;;7.63;;
47349;SDS011;33088;51.982;5.872;2023-01-31T11:10:30;21.65;;;7.18;;
47349;SDS011;33088;51.982;5.872;2023-01-31T11:12:58;22.73;;;6.95;;
47349;SDS011;33088;51.982;5.872;2023-01-31T11:15:34;31.83;;;8.32;;
47349;SDS011;33088;51.982;5.872;2023-01-31T11:18:03;24.92;;;7.82;;
47349;SDS011;33088;51.982;5.872;2023-01-31T11:20:34;19.13;;;8.00;;
47349;SDS011;33088;51.982;5.872;2023-01-31T11:23:02;28.92;;;8.90;;
47349;SDS011;33088;51.982;5.872;2023-01-31T11:25:31;24.45;;;7.68;;
47349;SDS011;33088;51.982;5.872;2023-01-31T11:27:59;30.30;;;8.57;;
47349;SDS011;33088;51.982;5.872;2023-01-31T11:32:56;24.10;;;8.65;;
47349;SDS011;33088;51.982;5.872;2023-01-31T11:35:23;25.75;;;8.55;;
47349;SDS011;33088;51.982;5.872;2023-01-31T11:37:53;17.23;;;7.55;;
47349;SDS011;33088;51.982;5.872;2023-01-31T11:40:30;17.70;;;7.25;;
47349;SDS011;33088;51.982;5.872;2023-01-31T11:43:20;27.90;;;8.73;;
47349;SDS011;33088;51.982;5.872;2023-01-31T11:45:53;27.13;;;8.68;;
47349;SDS011;33088;51.982;5.872;2023-01-31T11:48:26;23.55;;;7.65;;
47349;SDS011;33088;51.982;5.872;2023-01-31T11:51:04;23.42;;;8.25;;
47349;SDS011;33088;51.982;5.872;2023-01-31T11:56:12;21.65;;;8.70;;
47349;SDS011;33088;51.982;5.872;2023-01-31T11:58:40;30.13;;;8.00;;
47349;SDS011;33088;51.982;5.872;2023-01-31T12:01:17;24.05;;;8.20;;
47349;SDS011;33088;51.982;5.872;2023-01-31T12:03:53;27.30;;;7.80;;
47349;SDS011;33088;51.982;5.872;2023-01-31T12:06:31;24.75;;;8.35;;
47349;SDS011;33088;51.982;5.872;2023-01-31T12:08:57;31.60;;;8.57;;
47349;SDS011;33088;51.982;5.872;2023-01-31T12:14:13;26.25;;;9.27;;
47349;SDS011;33088;51.982;5.872;2023-01-31T12:16:40;26.63;;;8.68;;
47349;SDS011;33088;51.982;5.872;2023-01-31T12:19:15;19.55;;;7.70;;
47349;SDS011;33088;51.982;5.872;2023-01-31T12:22:05;30.20;;;8.13;;
47349;SDS011;33088;51.982;5.872;2023-01-31T12:29:53;33.90;;;10.05;;
47349;SDS011;33088;51.982;5.872;2023-01-31T12:52:12;39.13;;;9.55;;
47349;SDS011;33088;51.982;5.872;2023-01-31T12:57:50;20.60;;;7.30;;
47349;SDS011;33088;51.982;5.872;2023-01-31T13:00:44;20.92;;;8.15;;
47349;SDS011;33088;51.982;5.872;2023-01-31T13:03:29;24.35;;;7.22;;
47349;SDS011;33088;51.982;5.872;2023-01-31T13:06:13;24.02;;;7.78;;
47349;SDS011;33088;51.982;5.872;2023-01-31T13:08:51;27.90;;;8.32;;
47349;SDS011;33088;51.982;5.872;2023-01-31T13:11:23;22.35;;;7.95;;
47349;SDS011;33088;51.982;5.872;2023-01-31T13:14:01;17.40;;;9.23;;
47349;SDS011;33088;51.982;5.872;2023-01-31T13:16:39;16.90;;;7.57;;
47349;SDS011;33088;51.982;5.872;2023-01-31T13:19:18;24.15;;;7.47;;
47349;SDS011;33088;51.982;5.872;2023-01-31T13:21:48;19.17;;;7.63;;
47349;SDS011;33088;51.982;5.872;2023-01-31T13:24:30;16.70;;;6.97;;
47349;SDS011;33088;51.982;5.872;2023-01-31T13:27:13;21.13;;;8.07;;
47349;SDS011;33088;51.982;5.872;2023-01-31T13:30:00;21.73;;;7.28;;
47349;SDS011;33088;51.982;5.872;2023-01-31T13:32:34;17.75;;;7.40;;
47349;SDS011;33088;51.982;5.872;2023-01-31T13:37:55;24.20;;;7.85;;
47349;SDS011;33088;51.982;5.872;2023-01-31T13:40:27;24.65;;;7.53;;
47349;SDS011;33088;51.982;5.872;2023-01-31T13:42:57;20.95;;;8.05;;
47349;SDS011;33088;51.982;5.872;2023-01-31T13:45:31;22.77;;;8.05;;
47349;SDS011;33088;51.982;5.872;2023-01-31T13:48:04;25.67;;;8.13;;
47349;SDS011;33088;51.982;5.872;2023-01-31T13:50:43;19.90;;;6.93;;
47349;SDS011;33088;51.982;5.872;2023-01-31T13:53:15;21.40;;;7.65;;
47349;SDS011;33088;51.982;5.872;2023-01-31T13:55:46;30.27;;;8.35;;
47349;SDS011;33088;51.982;5.872;2023-01-31T14:09:29;29.27;;;8.35;;
47349;SDS011;33088;51.982;5.872;2023-01-31T14:12:00;30.25;;;8.60;;
47349;SDS011;33088;51.982;5.872;2023-01-31T14:14:39;34.75;;;9.25;;
47349;SDS011;33088;51.982;5.872;2023-01-31T14:24:59;33.20;;;8.82;;
47349;SDS011;33088;51.982;5.872;2023-01-31T14:27:27;27.80;;;8.57;;
47349;SDS011;33088;51.982;5.872;2023-01-31T14:33:20;20.23;;;7.53;;
47349;SDS011;33088;51.982;5.872;2023-01-31T14:39:03;23.45;;;6.28;;
47349;SDS011;33088;51.982;5.872;2023-01-31T14:41:55;25.23;;;7.18;;
47349;SDS011;33088;51.982;5.872;2023-01-31T14:47:41;22.33;;;5.93;;
47349;SDS011;33088;51.982;5.872;2023-01-31T14:50:34;32.88;;;6.55;;
47349;SDS011;33088;51.982;5.872;2023-01-31T14:53:46;23.15;;;5.70;;
47349;SDS011;33088;51.982;5.872;2023-01-31T14:58:45;23.17;;;4.65;;
47349;SDS011;33088;51.982;5.872;2023-01-31T15:01:12;17.33;;;4.38;;
47349;SDS011;33088;51.982;5.872;2023-01-31T15:06:22;24.27;;;5.50;;
47349;SDS011;33088;51.982;5.872;2023-01-31T15:09:16;26.42;;;4.32;;
47349;SDS011;33088;51.982;5.872;2023-01-31T15:11:40;18.85;;;4.43;;
47349;SDS011;33088;51.982;5.872;2023-01-31T15:14:18;11.90;;;3.60;;
47349;SDS011;33088;51.982;5.872;2023-01-31T15:17:15;14.23;;;4.43;;
47349;SDS011;33088;51.982;5.872;2023-01-31T15:19:51;18.90;;;3.85;;
47349;SDS011;33088;51.982;5.872;2023-01-31T15:22:21;17.20;;;3.55;;
47349;SDS011;33088;51.982;5.872;2023-01-31T15:24:50;17.27;;;3.85;;
47349;SDS011;33088;51.982;5.872;2023-01-31T15:27:22;13.20;;;3.40;;
47349;SDS011;33088;51.982;5.872;2023-01-31T15:32:59;14.07;;;2.47;;
47349;SDS011;33088;51.982;5.872;2023-01-31T15:38:21;18.08;;;3.50;;
47349;SDS011;33088;51.982;5.872;2023-01-31T15:41:49;13.40;;;2.83;;
47349;SDS011;33088;51.982;5.872;2023-01-31T15:44:18;9.38;;;2.08;;
47349;SDS011;33088;51.982;5.872;2023-01-31T15:46:48;15.48;;;2.42;;
47349;SDS011;33088;51.982;5.872;2023-01-31T15:49:28;19.98;;;3.70;;
47349;SDS011;33088;51.982;5.872;2023-01-31T15:54:31;16.90;;;3.10;;
47349;SDS011;33088;51.982;5.872;2023-01-31T15:56:57;18.50;;;2.83;;
47349;SDS011;33088;51.982;5.872;2023-01-31T15:59:25;13.27;;;2.70;;
47349;SDS011;33088;51.982;5.872;2023-01-31T16:01:54;13.90;;;2.70;;
47349;SDS011;33088;51.982;5.872;2023-01-31T16:04:26;12.25;;;2.50;;
47349;SDS011;33088;51.982;5.872;2023-01-31T16:06:52;16.45;;;2.72;;
47349;SDS011;33088;51.982;5.872;2023-01-31T16:09:23;13.27;;;2.65;;
47349;SDS011;33088;51.982;5.872;2023-01-31T16:11:54;13.63;;;2.90;;
47349;SDS011;33088;51.982;5.872;2023-01-31T16:14:22;15.05;;;2.72;;
47349;SDS011;33088;51.982;5.872;2023-01-31T16:16:53;10.75;;;2.53;;
47349;SDS011;33088;51.982;5.872;2023-01-31T16:19:38;19.73;;;3.38;;
47349;SDS011;33088;51.982;5.872;2023-01-31T16:22:18;20.35;;;3.35;;
47349;SDS011;33088;51.982;5.872;2023-01-31T16:24:57;17.08;;;3.03;;
47349;SDS011;33088;51.982;5.872;2023-01-31T16:27:26;13.88;;;2.97;;
47349;SDS011;33088;51.982;5.872;2023-01-31T16:29:55;15.38;;;3.40;;
47349;SDS011;33088;51.982;5.872;2023-01-31T16:32:26;15.15;;;3.10;;
47349;SDS011;33088;51.982;5.872;2023-01-31T16:35:04;17.58;;;3.28;;
47349;SDS011;33088;51.982;5.872;2023-01-31T16:37:38;16.00;;;3.05;;
47349;SDS011;33088;51.982;5.872;2023-01-31T16:40:09;12.90;;;2.63;;
47349;SDS011;33088;51.982;5.872;2023-01-31T16:42:42;12.77;;;2.35;;
47349;SDS011;33088;51.982;5.872;2023-01-31T16:50:51;10.38;;;2.33;;
47349;SDS011;33088;51.982;5.872;2023-01-31T16:56:14;19.70;;;3.17;;
47349;SDS011;33088;51.982;5.872;2023-01-31T16:58:44;13.55;;;2.90;;
47349;SDS011;33088;51.982;5.872;2023-01-31T17:01:15;14.15;;;4.13;;
47349;SDS011;33088;51.982;5.872;2023-01-31T17:03:43;19.70;;;3.63;;
47349;SDS011;33088;51.982;5.872;2023-01-31T17:06:10;11.20;;;2.58;;
47349;SDS011;33088;51.982;5.872;2023-01-31T17:08:43;17.60;;;3.38;;
47349;SDS011;33088;51.982;5.872;2023-01-31T17:11:10;18.20;;;3.80;;
47349;SDS011;33088;51.982;5.872;2023-01-31T17:13:37;13.23;;;3.15;;
47349;SDS011;33088;51.982;5.872;2023-01-31T17:16:11;20.13;;;4.72;;